sensor_id;sensor_type;location;lat;lon;timestamp;P1;durP1;ratioP1;P2;durP2;ratioP2
55346;SDS011;41218;55.700;38.270;2022-08-30T00:04:51;13.52;;;6.85;;
55346;SDS011;41218;55.700;38.270;2022-08-30T00:09:53;12.70;;;7.07;;
55346;SDS011;41218;55.700;38.270;2022-08-30T00:14:54;12.80;;;6.82;;
55346;SDS011;41218;55.700;38.270;2022-08-30T00:19:55;12.77;;;7.00;;
55346;SDS011;41218;55.700;38.270;2022-08-30T00:24:56;10.40;;;6.45;;
55346;SDS011;41218;55.700;38.270;2022-08-30T00:30:03;12.27;;;6.72;;
55346;SDS011;41218;55.700;38.270;2022-08-30T00:35:09;13.90;;;6.53;;
55346;SDS011;41218;55.700;38.270;2022-08-30T00:40:14;11.52;;;6.47;;
55346;SDS011;41218;55.700;38.270;2022-08-30T00:45:22;9.23;;;6.13;;
55346;SDS011;41218;55.700;38.270;2022-08-30T00:50:32;12.52;;;7.32;;
55346;SDS011;41218;55.700;38.270;2022-08-30T00:55:37;10.25;;;6.75;;
55346;SDS011;41218;55.700;38.270;2022-08-30T01:00:37;12.18;;;7.00;;
55346;SDS011;41218;55.700;38.270;2022-08-30T01:05:39;11.30;;;6.63;;
55346;SDS011;41218;55.700;38.270;2022-08-30T01:10:41;11.65;;;6.00;;
55346;SDS011;41218;55.700;38.270;2022-08-30T01:15:43;11.65;;;6.40;;
55346;SDS011;41218;55.700;38.270;2022-08-30T01:26:07;11.85;;;6.03;;
55346;SDS011;41218;55.700;38.270;2022-08-30T01:31:09;11.43;;;6.43;;
55346;SDS011;41218;55.700;38.270;2022-08-30T01:36:11;15.02;;;6.93;;
55346;SDS011;41218;55.700;38.270;2022-08-30T01:41:23;11.35;;;6.70;;
55346;SDS011;41218;55.700;38.270;2022-08-30T01:46:31;14.43;;;6.53;;
55346;SDS011;41218;55.700;38.270;2022-08-30T01:51:37;12.52;;;6.43;;
55346;SDS011;41218;55.700;38.270;2022-08-30T01:56:38;10.77;;;6.13;;
55346;SDS011;41218;55.700;38.270;2022-08-30T02:01:39;13.70;;;6.82;;
55346;SDS011;41218;55.700;38.270;2022-08-30T02:06:41;10.93;;;6.30;;
55346;SDS011;41218;55.700;38.270;2022-08-30T02:11:43;12.48;;;6.40;;
55346;SDS011;41218;55.700;38.270;2022-08-30T02:16:50;12.57;;;5.95;;
55346;SDS011;41218;55.700;38.270;2022-08-30T02:21:50;11.73;;;6.30;;
55346;SDS011;41218;55.700;38.270;2022-08-30T02:26:51;15.07;;;5.72;;
55346;SDS011;41218;55.700;38.270;2022-08-30T02:31:55;14.50;;;6.05;;
55346;SDS011;41218;55.700;38.270;2022-08-30T02:36:55;9.73;;;6.38;;
55346;SDS011;41218;55.700;38.270;2022-08-30T02:41:56;9.50;;;5.50;;
55346;SDS011;41218;55.700;38.270;2022-08-30T02:51:57;11.10;;;5.87;;
55346;SDS011;41218;55.700;38.270;2022-08-30T02:56:58;10.88;;;5.95;;
55346;SDS011;41218;55.700;38.270;2022-08-30T03:02:03;8.48;;;5.63;;
55346;SDS011;41218;55.700;38.270;2022-08-30T03:07:05;9.05;;;5.45;;
55346;SDS011;41218;55.700;38.270;2022-08-30T03:12:07;9.05;;;6.00;;
55346;SDS011;41218;55.700;38.270;2022-08-30T03:17:09;11.68;;;5.78;;
55346;SDS011;41218;55.700;38.270;2022-08-30T03:27:10;9.75;;;5.50;;
55346;SDS011;41218;55.700;38.270;2022-08-30T03:37:12;12.13;;;5.60;;
55346;SDS011;41218;55.700;38.270;2022-08-30T03:42:12;11.07;;;5.43;;
55346;SDS011;41218;55.700;38.270;2022-08-30T03:47:19;10.13;;;5.47;;
55346;SDS011;41218;55.700;38.270;2022-08-30T03:52:40;8.10;;;5.22;;
55346;SDS011;41218;55.700;38.270;2022-08-30T03:57:47;7.95;;;5.55;;
55346;SDS011;41218;55.700;38.270;2022-08-30T04:07:48;13.20;;;5.40;;
55346;SDS011;41218;55.700;38.270;2022-08-30T04:17:49;8.33;;;5.70;;
55346;SDS011;41218;55.700;38.270;2022-08-30T04:22:50;12.73;;;6.50;;
55346;SDS011;41218;55.700;38.270;2022-08-30T04:27:56;12.35;;;7.47;;
55346;SDS011;41218;55.700;38.270;2022-08-30T04:32:59;15.48;;;7.80;;
55346;SDS011;41218;55.700;38.270;2022-08-30T04:38:00;15.57;;;7.43;;
55346;SDS011;41218;55.700;38.270;2022-08-30T04:43:02;11.73;;;7.47;;
55346;SDS011;41218;55.700;38.270;2022-08-30T04:48:05;13.00;;;7.70;;
55346;SDS011;41218;55.700;38.270;2022-08-30T04:53:09;15.60;;;8.00;;
55346;SDS011;41218;55.700;38.270;2022-08-30T04:58:14;14.07;;;7.88;;
55346;SDS011;41218;55.700;38.270;2022-08-30T05:03:15;18.00;;;9.00;;
55346;SDS011;41218;55.700;38.270;2022-08-30T05:08:17;21.25;;;8.35;;
55346;SDS011;41218;55.700;38.270;2022-08-30T05:13:20;13.32;;;8.05;;
55346;SDS011;41218;55.700;38.270;2022-08-30T05:18:21;13.60;;;9.10;;
55346;SDS011;41218;55.700;38.270;2022-08-30T05:23:22;16.63;;;9.15;;
55346;SDS011;41218;55.700;38.270;2022-08-30T05:28:22;16.48;;;8.38;;
55346;SDS011;41218;55.700;38.270;2022-08-30T05:33:30;16.88;;;9.43;;
55346;SDS011;41218;55.700;38.270;2022-08-30T05:38:31;18.95;;;9.73;;
55346;SDS011;41218;55.700;38.270;2022-08-30T05:43:32;18.02;;;10.07;;
55346;SDS011;41218;55.700;38.270;2022-08-30T05:48:33;25.58;;;10.07;;
55346;SDS011;41218;55.700;38.270;2022-08-30T05:53:34;22.13;;;10.52;;
55346;SDS011;41218;55.700;38.270;2022-08-30T05:58:37;19.33;;;10.38;;
55346;SDS011;41218;55.700;38.270;2022-08-30T06:03:38;19.85;;;10.68;;
55346;SDS011;41218;55.700;38.270;2022-08-30T06:08:38;16.40;;;10.45;;
55346;SDS011;41218;55.700;38.270;2022-08-30T06:13:39;28.73;;;11.95;;
55346;SDS011;41218;55.700;38.270;2022-08-30T06:18:45;24.45;;;12.05;;
55346;SDS011;41218;55.700;38.270;2022-08-30T06:23:46;22.50;;;12.18;;
55346;SDS011;41218;55.700;38.270;2022-08-30T06:28:47;19.08;;;12.23;;
55346;SDS011;41218;55.700;38.270;2022-08-30T06:33:48;19.67;;;12.10;;
55346;SDS011;41218;55.700;38.270;2022-08-30T06:38:50;24.73;;;13.23;;
55346;SDS011;41218;55.700;38.270;2022-08-30T06:43:56;19.33;;;12.13;;
55346;SDS011;41218;55.700;38.270;2022-08-30T06:49:08;22.67;;;12.25;;
55346;SDS011;41218;55.700;38.270;2022-08-30T06:54:10;20.42;;;12.50;;
55346;SDS011;41218;55.700;38.270;2022-08-30T06:59:11;23.17;;;12.60;;
55346;SDS011;41218;55.700;38.270;2022-08-30T07:04:12;26.55;;;11.63;;
55346;SDS011;41218;55.700;38.270;2022-08-30T07:09:13;21.88;;;13.23;;
55346;SDS011;41218;55.700;38.270;2022-08-30T07:14:16;21.45;;;11.45;;
55346;SDS011;41218;55.700;38.270;2022-08-30T07:19:18;24.27;;;12.52;;
55346;SDS011;41218;55.700;38.270;2022-08-30T07:24:19;16.27;;;11.27;;
55346;SDS011;41218;55.700;38.270;2022-08-30T07:29:30;18.38;;;12.07;;
55346;SDS011;41218;55.700;38.270;2022-08-30T07:34:31;22.35;;;11.50;;
55346;SDS011;41218;55.700;38.270;2022-08-30T07:39:42;24.17;;;12.27;;
55346;SDS011;41218;55.700;38.270;2022-08-30T07:44:43;23.15;;;12.30;;
55346;SDS011;41218;55.700;38.270;2022-08-30T07:49:46;20.17;;;12.32;;
55346;SDS011;41218;55.700;38.270;2022-08-30T07:54:47;17.23;;;11.55;;
55346;SDS011;41218;55.700;38.270;2022-08-30T07:59:47;18.80;;;12.75;;
55346;SDS011;41218;55.700;38.270;2022-08-30T08:04:48;23.60;;;12.20;;
55346;SDS011;41218;55.700;38.270;2022-08-30T08:09:49;20.83;;;12.77;;
55346;SDS011;41218;55.700;38.270;2022-08-30T08:14:53;32.33;;;13.20;;
55346;SDS011;41218;55.700;38.270;2022-08-30T08:19:53;25.33;;;11.85;;
55346;SDS011;41218;55.700;38.270;2022-08-30T08:24:54;20.95;;;12.77;;
55346;SDS011;41218;55.700;38.270;2022-08-30T08:30:00;21.50;;;12.60;;
55346;SDS011;41218;55.700;38.270;2022-08-30T08:35:04;22.08;;;12.27;;
55346;SDS011;41218;55.700;38.270;2022-08-30T08:40:09;18.92;;;11.15;;
55346;SDS011;41218;55.700;38.270;2022-08-30T08:45:16;22.73;;;11.63;;
55346;SDS011;41218;55.700;38.270;2022-08-30T08:50:23;22.42;;;11.70;;
55346;SDS011;41218;55.700;38.270;2022-08-30T08:55:27;17.67;;;10.77;;
55346;SDS011;41218;55.700;38.270;2022-08-30T09:00:29;18.92;;;11.82;;
55346;SDS011;41218;55.700;38.270;2022-08-30T09:05:34;20.60;;;10.50;;
55346;SDS011;41218;55.700;38.270;2022-08-30T09:10:37;15.80;;;10.90;;
55346;SDS011;41218;55.700;38.270;2022-08-30T09:15:39;15.43;;;10.38;;
55346;SDS011;41218;55.700;38.270;2022-08-30T09:20:46;16.17;;;10.55;;
55346;SDS011;41218;55.700;38.270;2022-08-30T09:25:56;17.05;;;10.73;;
55346;SDS011;41218;55.700;38.270;2022-08-30T09:31:02;18.70;;;11.02;;
55346;SDS011;41218;55.700;38.270;2022-08-30T09:36:25;23.38;;;10.93;;
55346;SDS011;41218;55.700;38.270;2022-08-30T09:41:28;17.63;;;10.90;;
55346;SDS011;41218;55.700;38.270;2022-08-30T09:46:46;17.33;;;10.77;;
55346;SDS011;41218;55.700;38.270;2022-08-30T09:51:51;17.77;;;10.43;;
55346;SDS011;41218;55.700;38.270;2022-08-30T10:23:55;14.40;;;10.00;;
55346;SDS011;41218;55.700;38.270;2022-08-30T10:29:07;17.17;;;11.05;;
55346;SDS011;41218;55.700;38.270;2022-08-30T10:34:40;19.55;;;10.55;;
55346;SDS011;41218;55.700;38.270;2022-08-30T10:39:51;15.98;;;9.60;;
55346;SDS011;41218;55.700;38.270;2022-08-30T10:45:01;17.98;;;10.75;;
55346;SDS011;41218;55.700;38.270;2022-08-30T10:50:17;14.48;;;10.73;;
55346;SDS011;41218;55.700;38.270;2022-08-30T10:55:29;16.15;;;10.43;;
55346;SDS011;41218;55.700;38.270;2022-08-30T11:00:38;16.98;;;10.15;;
55346;SDS011;41218;55.700;38.270;2022-08-30T11:06:00;20.38;;;13.45;;
55346;SDS011;41218;55.700;38.270;2022-08-30T11:16:17;14.70;;;10.00;;
55346;SDS011;41218;55.700;38.270;2022-08-30T11:21:20;14.55;;;10.23;;
55346;SDS011;41218;55.700;38.270;2022-08-30T11:26:49;18.85;;;11.63;;
55346;SDS011;41218;55.700;38.270;2022-08-30T11:31:54;16.17;;;11.27;;
55346;SDS011;41218;55.700;38.270;2022-08-30T11:37:01;17.25;;;11.05;;
55346;SDS011;41218;55.700;38.270;2022-08-30T11:42:23;17.35;;;11.60;;
55346;SDS011;41218;55.700;38.270;2022-08-30T11:47:45;19.98;;;12.05;;
55346;SDS011;41218;55.700;38.270;2022-08-30T11:58:04;14.80;;;11.05;;
55346;SDS011;41218;55.700;38.270;2022-08-30T12:18:43;16.48;;;12.43;;
55346;SDS011;41218;55.700;38.270;2022-08-30T12:23:57;26.30;;;14.38;;
55346;SDS011;41218;55.700;38.270;2022-08-30T12:29:19;16.85;;;12.35;;
55346;SDS011;41218;55.700;38.270;2022-08-30T12:34:27;19.45;;;12.98;;
55346;SDS011;41218;55.700;38.270;2022-08-30T12:39:37;20.58;;;13.93;;
55346;SDS011;41218;55.700;38.270;2022-08-30T12:44:41;21.08;;;13.82;;
55346;SDS011;41218;55.700;38.270;2022-08-30T12:49:42;28.15;;;13.48;;
55346;SDS011;41218;55.700;38.270;2022-08-30T12:54:46;22.95;;;13.95;;
55346;SDS011;41218;55.700;38.270;2022-08-30T12:59:48;17.25;;;13.60;;
55346;SDS011;41218;55.700;38.270;2022-08-30T13:04:52;22.92;;;13.82;;
55346;SDS011;41218;55.700;38.270;2022-08-30T13:10:04;20.00;;;13.00;;
55346;SDS011;41218;55.700;38.270;2022-08-30T13:15:19;17.73;;;11.85;;
55346;SDS011;41218;55.700;38.270;2022-08-30T13:20:36;20.65;;;11.38;;
55346;SDS011;41218;55.700;38.270;2022-08-30T13:25:38;18.48;;;12.55;;
55346;SDS011;41218;55.700;38.270;2022-08-30T13:30:39;16.98;;;11.55;;
55346;SDS011;41218;55.700;38.270;2022-08-30T13:35:39;14.55;;;10.05;;
55346;SDS011;41218;55.700;38.270;2022-08-30T13:40:41;16.92;;;10.70;;
55346;SDS011;41218;55.700;38.270;2022-08-30T13:45:42;20.15;;;10.82;;
55346;SDS011;41218;55.700;38.270;2022-08-30T13:50:42;16.77;;;10.07;;
55346;SDS011;41218;55.700;38.270;2022-08-30T13:55:43;16.45;;;10.27;;
55346;SDS011;41218;55.700;38.270;2022-08-30T14:00:44;16.35;;;10.00;;
55346;SDS011;41218;55.700;38.270;2022-08-30T14:05:46;16.02;;;9.52;;
55346;SDS011;41218;55.700;38.270;2022-08-30T14:10:47;14.65;;;9.88;;
55346;SDS011;41218;55.700;38.270;2022-08-30T14:15:49;15.43;;;9.30;;
55346;SDS011;41218;55.700;38.270;2022-08-30T14:20:50;11.50;;;9.20;;
55346;SDS011;41218;55.700;38.270;2022-08-30T14:25:52;16.10;;;9.38;;
55346;SDS011;41218;55.700;38.270;2022-08-30T14:30:53;14.43;;;9.18;;
55346;SDS011;41218;55.700;38.270;2022-08-30T14:35:53;16.08;;;9.50;;
55346;SDS011;41218;55.700;38.270;2022-08-30T14:40:54;16.10;;;9.85;;
55346;SDS011;41218;55.700;38.270;2022-08-30T14:45:59;11.73;;;9.32;;
55346;SDS011;41218;55.700;38.270;2022-08-30T14:51:00;20.65;;;9.52;;
55346;SDS011;41218;55.700;38.270;2022-08-30T14:56:05;12.93;;;8.90;;
55346;SDS011;41218;55.700;38.270;2022-08-30T15:01:08;14.07;;;9.07;;
55346;SDS011;41218;55.700;38.270;2022-08-30T15:06:09;13.45;;;8.20;;
55346;SDS011;41218;55.700;38.270;2022-08-30T15:11:19;15.25;;;8.50;;
55346;SDS011;41218;55.700;38.270;2022-08-30T15:16:23;11.48;;;7.75;;
55346;SDS011;41218;55.700;38.270;2022-08-30T15:21:29;11.30;;;6.78;;
55346;SDS011;41218;55.700;38.270;2022-08-30T15:26:32;10.23;;;6.20;;
55346;SDS011;41218;55.700;38.270;2022-08-30T15:31:33;13.95;;;5.60;;
55346;SDS011;41218;55.700;38.270;2022-08-30T15:36:34;13.95;;;5.95;;
55346;SDS011;41218;55.700;38.270;2022-08-30T15:41:35;9.45;;;5.07;;
55346;SDS011;41218;55.700;38.270;2022-08-30T15:46:37;13.43;;;5.85;;
55346;SDS011;41218;55.700;38.270;2022-08-30T15:51:43;13.38;;;5.63;;
55346;SDS011;41218;55.700;38.270;2022-08-30T15:56:45;12.80;;;5.38;;
55346;SDS011;41218;55.700;38.270;2022-08-30T16:01:46;9.77;;;5.00;;
55346;SDS011;41218;55.700;38.270;2022-08-30T16:06:50;12.52;;;5.85;;
55346;SDS011;41218;55.700;38.270;2022-08-30T16:11:51;10.57;;;6.25;;
55346;SDS011;41218;55.700;38.270;2022-08-30T16:16:52;16.17;;;5.55;;
55346;SDS011;41218;55.700;38.270;2022-08-30T16:21:53;13.75;;;5.63;;
55346;SDS011;41218;55.700;38.270;2022-08-30T16:26:54;13.45;;;5.97;;
55346;SDS011;41218;55.700;38.270;2022-08-30T16:31:55;11.50;;;5.65;;
55346;SDS011;41218;55.700;38.270;2022-08-30T16:36:59;13.43;;;6.05;;
55346;SDS011;41218;55.700;38.270;2022-08-30T16:42:00;13.85;;;5.82;;
55346;SDS011;41218;55.700;38.270;2022-08-30T16:47:02;18.73;;;6.55;;
55346;SDS011;41218;55.700;38.270;2022-08-30T16:52:06;16.92;;;6.05;;
55346;SDS011;41218;55.700;38.270;2022-08-30T16:57:06;13.82;;;6.00;;
55346;SDS011;41218;55.700;38.270;2022-08-30T17:02:07;12.02;;;6.20;;
55346;SDS011;41218;55.700;38.270;2022-08-30T17:12:51;13.40;;;6.28;;
55346;SDS011;41218;55.700;38.270;2022-08-30T17:17:53;13.32;;;6.35;;
55346;SDS011;41218;55.700;38.270;2022-08-30T17:22:56;11.30;;;6.10;;
55346;SDS011;41218;55.700;38.270;2022-08-30T17:28:03;13.98;;;6.47;;
55346;SDS011;41218;55.700;38.270;2022-08-30T17:33:04;17.05;;;6.28;;
55346;SDS011;41218;55.700;38.270;2022-08-30T17:38:06;13.02;;;6.50;;
55346;SDS011;41218;55.700;38.270;2022-08-30T17:43:06;13.35;;;6.40;;
55346;SDS011;41218;55.700;38.270;2022-08-30T17:48:07;12.73;;;6.35;;
55346;SDS011;41218;55.700;38.270;2022-08-30T17:53:13;17.50;;;6.63;;
55346;SDS011;41218;55.700;38.270;2022-08-30T17:58:14;13.23;;;6.63;;
55346;SDS011;41218;55.700;38.270;2022-08-30T18:03:15;15.57;;;6.78;;
55346;SDS011;41218;55.700;38.270;2022-08-30T18:20:11;15.35;;;7.10;;
55346;SDS011;41218;55.700;38.270;2022-08-30T18:25:15;17.60;;;6.75;;
55346;SDS011;41218;55.700;38.270;2022-08-30T18:30:17;13.52;;;6.97;;
55346;SDS011;41218;55.700;38.270;2022-08-30T18:40:56;13.38;;;7.18;;
55346;SDS011;41218;55.700;38.270;2022-08-30T18:46:02;16.02;;;7.20;;
55346;SDS011;41218;55.700;38.270;2022-08-30T18:51:09;15.90;;;7.40;;
55346;SDS011;41218;55.700;38.270;2022-08-30T18:56:15;12.77;;;7.28;;
55346;SDS011;41218;55.700;38.270;2022-08-30T19:01:16;13.75;;;6.85;;
55346;SDS011;41218;55.700;38.270;2022-08-30T19:06:36;13.07;;;7.30;;
55346;SDS011;41218;55.700;38.270;2022-08-30T19:11:40;18.33;;;7.00;;
55346;SDS011;41218;55.700;38.270;2022-08-30T19:16:41;13.13;;;7.35;;
55346;SDS011;41218;55.700;38.270;2022-08-30T19:21:45;10.13;;;7.38;;
55346;SDS011;41218;55.700;38.270;2022-08-30T19:26:51;14.05;;;7.75;;
55346;SDS011;41218;55.700;38.270;2022-08-30T19:31:51;13.60;;;7.43;;
55346;SDS011;41218;55.700;38.270;2022-08-30T19:36:52;13.07;;;7.47;;
55346;SDS011;41218;55.700;38.270;2022-08-30T19:41:53;11.05;;;7.72;;
55346;SDS011;41218;55.700;38.270;2022-08-30T19:46:54;14.25;;;7.68;;
55346;SDS011;41218;55.700;38.270;2022-08-30T19:51:55;12.15;;;7.57;;
55346;SDS011;41218;55.700;38.270;2022-08-30T19:56:56;15.27;;;7.70;;
55346;SDS011;41218;55.700;38.270;2022-08-30T20:01:59;11.27;;;7.72;;
55346;SDS011;41218;55.700;38.270;2022-08-30T20:07:02;18.98;;;7.40;;
55346;SDS011;41218;55.700;38.270;2022-08-30T20:12:03;16.67;;;7.50;;
55346;SDS011;41218;55.700;38.270;2022-08-30T20:17:04;13.68;;;7.65;;
55346;SDS011;41218;55.700;38.270;2022-08-30T20:22:12;14.90;;;8.27;;
55346;SDS011;41218;55.700;38.270;2022-08-30T20:27:13;13.30;;;7.43;;
55346;SDS011;41218;55.700;38.270;2022-08-30T20:32:14;12.48;;;7.63;;
55346;SDS011;41218;55.700;38.270;2022-08-30T20:37:15;11.55;;;7.13;;
55346;SDS011;41218;55.700;38.270;2022-08-30T20:42:17;14.32;;;7.38;;
55346;SDS011;41218;55.700;38.270;2022-08-30T20:47:18;14.05;;;8.38;;
55346;SDS011;41218;55.700;38.270;2022-08-30T20:52:19;16.75;;;7.78;;
55346;SDS011;41218;55.700;38.270;2022-08-30T20:57:21;17.20;;;8.40;;
55346;SDS011;41218;55.700;38.270;2022-08-30T21:02:24;14.60;;;7.82;;
55346;SDS011;41218;55.700;38.270;2022-08-30T21:07:24;13.20;;;7.70;;
55346;SDS011;41218;55.700;38.270;2022-08-30T21:12:28;12.20;;;7.68;;
55346;SDS011;41218;55.700;38.270;2022-08-30T21:17:29;13.95;;;8.27;;
55346;SDS011;41218;55.700;38.270;2022-08-30T21:22:30;14.15;;;7.88;;
55346;SDS011;41218;55.700;38.270;2022-08-30T21:27:34;17.48;;;7.55;;
55346;SDS011;41218;55.700;38.270;2022-08-30T21:32:42;19.27;;;8.07;;
55346;SDS011;41218;55.700;38.270;2022-08-30T21:37:45;11.15;;;7.63;;
55346;SDS011;41218;55.700;38.270;2022-08-30T21:42:55;14.45;;;7.85;;
55346;SDS011;41218;55.700;38.270;2022-08-30T21:48:01;14.10;;;7.88;;
55346;SDS011;41218;55.700;38.270;2022-08-30T21:53:02;12.30;;;7.78;;
55346;SDS011;41218;55.700;38.270;2022-08-30T21:58:04;12.02;;;7.75;;
55346;SDS011;41218;55.700;38.270;2022-08-30T22:03:05;13.65;;;8.05;;
55346;SDS011;41218;55.700;38.270;2022-08-30T22:08:06;15.35;;;8.07;;
55346;SDS011;41218;55.700;38.270;2022-08-30T22:13:07;17.65;;;7.88;;
55346;SDS011;41218;55.700;38.270;2022-08-30T22:18:21;14.00;;;8.20;;
55346;SDS011;41218;55.700;38.270;2022-08-30T22:23:37;13.15;;;7.82;;
55346;SDS011;41218;55.700;38.270;2022-08-30T22:28:41;18.30;;;8.10;;
55346;SDS011;41218;55.700;38.270;2022-08-30T22:33:47;18.25;;;8.55;;
55346;SDS011;41218;55.700;38.270;2022-08-30T22:38:51;16.67;;;8.00;;
55346;SDS011;41218;55.700;38.270;2022-08-30T22:43:58;15.27;;;8.30;;
55346;SDS011;41218;55.700;38.270;2022-08-30T22:49:04;14.75;;;8.27;;
55346;SDS011;41218;55.700;38.270;2022-08-30T22:54:09;15.95;;;8.38;;
55346;SDS011;41218;55.700;38.270;2022-08-30T22:59:12;15.20;;;8.20;;
55346;SDS011;41218;55.700;38.270;2022-08-30T23:04:14;17.13;;;8.27;;
55346;SDS011;41218;55.700;38.270;2022-08-30T23:09:14;16.10;;;8.30;;
55346;SDS011;41218;55.700;38.270;2022-08-30T23:14:23;18.95;;;8.10;;
55346;SDS011;41218;55.700;38.270;2022-08-30T23:19:29;18.00;;;8.10;;
55346;SDS011;41218;55.700;38.270;2022-08-30T23:24:33;14.93;;;8.55;;
55346;SDS011;41218;55.700;38.270;2022-08-30T23:29:52;14.05;;;8.00;;
55346;SDS011;41218;55.700;38.270;2022-08-30T23:35:19;14.85;;;7.95;;
55346;SDS011;41218;55.700;38.270;2022-08-30T23:40:38;16.77;;;8.38;;
55346;SDS011;41218;55.700;38.270;2022-08-30T23:45:58;15.27;;;8.13;;
55346;SDS011;41218;55.700;38.270;2022-08-30T23:51:41;14.07;;;7.72;;
55346;SDS011;41218;55.700;38.270;2022-08-30T23:57:12;15.85;;;8.30;;
